createdAt,value
2018-09-28T00:00:02.431Z,-4.40
2018-09-28T00:02:30.365Z,-4.42
2018-09-28T00:04:58.296Z,-4.43
2018-09-28T00:07:26.255Z,-4.44
2018-09-28T00:09:54.187Z,-4.44
2018-09-28T00:12:22.274Z,-4.42
2018-09-28T00:14:50.215Z,-4.45
2018-09-28T00:17:18.142Z,-4.46
2018-09-28T00:19:46.099Z,-4.47
2018-09-28T00:22:14.095Z,-4.46
2018-09-28T00:24:42.011Z,-4.47
2018-09-28T00:27:09.921Z,-4.49
2018-09-28T00:29:37.871Z,-4.52
2018-09-28T00:32:06.070Z,-4.52
2018-09-28T00:34:34.047Z,-4.53
2018-09-28T00:37:01.983Z,-4.50
2018-09-28T00:39:29.925Z,-4.53
2018-09-28T00:41:57.892Z,-4.52
2018-09-28T00:44:25.832Z,-4.54
2018-09-28T00:46:53.752Z,-4.54
2018-09-28T00:49:21.760Z,-4.55
2018-09-28T00:51:49.697Z,-4.57
2018-09-28T00:54:17.654Z,-4.56
2018-09-28T00:56:45.624Z,-4.55
2018-09-28T00:59:13.636Z,-4.58
2018-09-28T01:01:41.615Z,-4.61
2018-09-28T01:04:09.791Z,-4.58
2018-09-28T01:06:37.754Z,-4.61
2018-09-28T01:09:08.441Z,-4.63
2018-09-28T01:11:36.465Z,-4.62
2018-09-28T01:14:04.318Z,-4.63
2018-09-28T01:16:32.185Z,-4.66
2018-09-28T01:19:00.053Z,-4.67
2018-09-28T01:21:27.919Z,-4.70
2018-09-28T01:23:55.748Z,-4.71
2018-09-28T01:26:23.570Z,-4.72
2018-09-28T01:28:51.408Z,-4.75
2018-09-28T01:33:53.651Z,-4.72
2018-09-28T01:36:21.484Z,-4.73
2018-09-28T01:38:49.302Z,-4.66
2018-09-28T01:41:17.231Z,-4.67
2018-09-28T01:43:45.104Z,-4.65
2018-09-28T01:46:12.962Z,-4.56
2018-09-28T01:48:40.785Z,-4.57
2018-09-28T01:51:08.641Z,-4.58
2018-09-28T01:53:36.518Z,-4.58
2018-09-28T01:56:04.339Z,-4.57
2018-09-28T01:58:32.202Z,-4.55
2018-09-28T02:01:00.074Z,-4.53
2018-09-28T02:03:27.873Z,-4.49
2018-09-28T02:05:55.724Z,-4.46
2018-09-28T02:08:23.648Z,-4.46
2018-09-28T02:10:51.485Z,-4.43
2018-09-28T02:13:19.401Z,-4.41
2018-09-28T02:15:47.349Z,-4.39
2018-09-28T02:18:15.146Z,-4.39
2018-09-28T02:20:43.024Z,-4.37
2018-09-28T02:23:10.889Z,-4.37
2018-09-28T02:25:38.721Z,-4.34
2018-09-28T02:28:06.574Z,-4.33
2018-09-28T02:30:35.420Z,-4.34
2018-09-28T02:33:03.243Z,-4.32
2018-09-28T02:35:31.063Z,-4.31
2018-09-28T02:37:58.888Z,-4.29
2018-09-28T02:40:26.716Z,-4.28
2018-09-28T02:42:54.596Z,-4.29
2018-09-28T02:45:22.424Z,-4.27
2018-09-28T02:47:50.324Z,-4.28
2018-09-28T02:50:18.205Z,-4.31
2018-09-28T02:52:46.353Z,-4.34
2018-09-28T02:55:14.343Z,-4.35
2018-09-28T02:57:42.338Z,-4.40
2018-09-28T03:00:10.301Z,-4.42
2018-09-28T03:02:38.183Z,-4.41
2018-09-28T03:05:06.163Z,-4.43
2018-09-28T03:07:34.030Z,-4.46
2018-09-28T03:10:02.091Z,-4.47
2018-09-28T03:12:30.105Z,-4.50
2018-09-28T03:14:58.057Z,-4.53
2018-09-28T03:17:25.938Z,-4.54
2018-09-28T03:19:53.785Z,-4.56
2018-09-28T03:22:21.643Z,-4.59
2018-09-28T03:24:49.471Z,-4.61
2018-09-28T03:27:17.251Z,-4.62
2018-09-28T03:29:45.071Z,-4.62
2018-09-28T03:32:12.921Z,-4.63
2018-09-28T03:34:40.720Z,-4.63
2018-09-28T03:37:08.498Z,-4.61
2018-09-28T03:39:36.322Z,-4.60
2018-09-28T03:42:04.119Z,-4.58
2018-09-28T03:44:31.956Z,-4.54
2018-09-28T03:46:59.870Z,-4.51
2018-09-28T03:49:27.684Z,-4.49
2018-09-28T03:51:55.538Z,-4.47
2018-09-28T03:54:23.328Z,-4.46
2018-09-28T03:56:51.206Z,-4.46
2018-09-28T03:59:19.030Z,-4.46
2018-09-28T04:01:46.879Z,-4.45
2018-09-28T04:04:14.699Z,-4.47
2018-09-28T04:06:42.490Z,-4.43
2018-09-28T04:09:11.449Z,-4.38
2018-09-28T04:11:39.258Z,-4.37
2018-09-28T04:14:07.455Z,-4.38
2018-09-28T04:16:35.255Z,-4.40
2018-09-28T04:19:03.034Z,-4.40
2018-09-28T04:21:30.871Z,-4.41
2018-09-28T04:23:58.851Z,-4.39
2018-09-28T04:26:26.674Z,-4.40
2018-09-28T04:28:54.527Z,-4.41
2018-09-28T04:31:22.351Z,-4.40
2018-09-28T04:33:50.187Z,-4.38
2018-09-28T04:36:17.995Z,-4.36
2018-09-28T04:38:45.814Z,-4.33
2018-09-28T04:41:13.672Z,-4.29
2018-09-28T04:43:41.500Z,-4.26
2018-09-28T04:46:09.311Z,-4.23
2018-09-28T04:48:37.182Z,-4.19
2018-09-28T04:51:05.010Z,-4.16
2018-09-28T04:53:32.810Z,-4.11
2018-09-28T04:56:00.642Z,-4.08
2018-09-28T04:58:28.484Z,-4.08
2018-09-28T05:00:56.321Z,-4.07
2018-09-28T05:03:24.102Z,-4.07
2018-09-28T05:05:52.003Z,-4.07
2018-09-28T05:08:19.807Z,-4.04
2018-09-28T05:10:47.645Z,-4.02
2018-09-28T05:13:15.537Z,-4.00
2018-09-28T05:15:43.327Z,-3.97
2018-09-28T05:18:11.198Z,-3.92
2018-09-28T05:20:38.994Z,-3.86
2018-09-28T05:23:06.899Z,-3.81
2018-09-28T05:25:34.750Z,-3.78
2018-09-28T05:28:02.570Z,-3.73
2018-09-28T05:30:30.494Z,-3.65
2018-09-28T05:32:58.450Z,-3.56
2018-09-28T05:35:26.119Z,-3.45
2018-09-28T05:37:54.010Z,-3.28
2018-09-28T05:40:21.836Z,-3.08
2018-09-28T05:42:49.726Z,-2.84
2018-09-28T05:45:17.547Z,-2.65
2018-09-28T05:47:45.346Z,-2.45
2018-09-28T05:50:13.163Z,-2.27
2018-09-28T05:52:40.963Z,-2.12
2018-09-28T05:55:08.802Z,-1.95
2018-09-28T05:57:36.598Z,-1.77
2018-09-28T06:00:10.071Z,-1.63
2018-09-28T06:02:43.502Z,-1.45
2018-09-28T06:05:16.814Z,-1.21
2018-09-28T06:07:44.610Z,-0.97
2018-09-28T06:10:12.394Z,-0.73
2018-09-28T06:12:40.342Z,-0.50
2018-09-28T06:15:08.195Z,-0.26
2018-09-28T06:17:36.064Z,-0.01
2018-09-28T06:20:03.931Z,0.24
2018-09-28T06:22:31.774Z,0.51
2018-09-28T06:24:59.558Z,0.68
2018-09-28T06:27:27.411Z,0.76
2018-09-28T06:29:55.269Z,0.86
2018-09-28T06:32:23.119Z,0.99
2018-09-28T06:34:50.968Z,1.14
2018-09-28T06:37:18.751Z,1.26
2018-09-28T06:39:46.609Z,1.31
2018-09-28T06:42:14.450Z,1.37
2018-09-28T06:44:42.255Z,1.45
2018-09-28T06:47:10.149Z,1.59
2018-09-28T06:49:37.953Z,1.83
2018-09-28T06:52:05.799Z,2.11
2018-09-28T06:54:33.625Z,2.37
2018-09-28T06:57:01.435Z,2.62
2018-09-28T06:59:29.262Z,2.82
2018-09-28T07:01:57.076Z,3.06
2018-09-28T07:04:24.917Z,3.09
2018-09-28T07:06:52.710Z,3.13
2018-09-28T07:09:20.550Z,3.30
2018-09-28T07:11:48.458Z,3.36
2018-09-28T07:14:16.234Z,3.57
2018-09-28T07:16:44.112Z,3.72
2018-09-28T07:19:11.955Z,4.01
2018-09-28T07:21:39.787Z,4.11
2018-09-28T07:24:07.644Z,4.33
2018-09-28T07:26:35.436Z,4.62
2018-09-28T07:29:03.255Z,5.05
2018-09-28T07:31:31.118Z,5.30
2018-09-28T07:33:58.907Z,5.49
2018-09-28T07:36:26.853Z,5.57
2018-09-28T07:38:54.606Z,5.59
2018-09-28T07:41:29.074Z,5.59
2018-09-28T07:43:56.927Z,5.58
2018-09-28T07:46:24.723Z,5.82
2018-09-28T07:48:52.512Z,6.09
2018-09-28T07:51:20.391Z,6.32
2018-09-28T07:53:48.186Z,6.49
2018-09-28T07:56:15.964Z,6.43
2018-09-28T07:58:43.779Z,6.50
2018-09-28T08:01:11.586Z,6.87
2018-09-28T08:03:39.456Z,7.19
2018-09-28T08:06:07.282Z,7.35
2018-09-28T08:08:35.074Z,7.40
2018-09-28T08:11:02.894Z,7.36
2018-09-28T08:13:30.664Z,7.49
2018-09-28T08:15:58.513Z,7.45
2018-09-28T08:18:26.290Z,7.49
2018-09-28T08:20:54.074Z,7.47
2018-09-28T08:23:22.033Z,7.59
2018-09-28T08:25:50.275Z,7.78
2018-09-28T08:28:18.835Z,7.75
2018-09-28T08:30:46.651Z,7.96
2018-09-28T08:33:14.451Z,8.24
2018-09-28T08:35:42.283Z,8.45
2018-09-28T08:38:10.082Z,8.54
2018-09-28T08:40:37.899Z,8.69
2018-09-28T08:43:05.818Z,8.80
2018-09-28T08:45:33.635Z,9.03
2018-09-28T08:48:01.491Z,9.31
2018-09-28T08:50:29.350Z,9.59
2018-09-28T08:52:57.342Z,9.71
2018-09-28T08:55:25.114Z,9.83
2018-09-28T08:57:52.922Z,9.93
2018-09-28T09:00:21.027Z,10.07
2018-09-28T09:02:48.803Z,10.14
2018-09-28T09:05:16.610Z,10.42
2018-09-28T09:07:44.419Z,10.28
2018-09-28T09:10:12.206Z,10.19
2018-09-28T09:12:40.441Z,10.44
2018-09-28T09:15:08.313Z,10.19
2018-09-28T09:17:36.163Z,10.05
2018-09-28T09:20:04.074Z,10.07
2018-09-28T09:22:31.860Z,10.28
2018-09-28T09:24:59.704Z,10.43
2018-09-28T09:27:27.494Z,10.66
2018-09-28T09:29:55.269Z,10.72
2018-09-28T09:32:23.140Z,10.76
2018-09-28T09:34:50.974Z,10.96
2018-09-28T09:37:18.752Z,11.06
2018-09-28T09:39:46.527Z,10.75
2018-09-28T09:42:14.383Z,10.89
2018-09-28T09:44:42.558Z,10.89
2018-09-28T09:47:10.325Z,11.18
2018-09-28T09:49:38.207Z,11.22
2018-09-28T09:52:06.116Z,11.50
2018-09-28T09:54:34.012Z,11.38
2018-09-28T09:57:01.842Z,11.06
2018-09-28T09:59:29.616Z,11.01
2018-09-28T10:02:03.096Z,10.96
2018-09-28T10:04:30.885Z,11.25
2018-09-28T10:06:58.698Z,11.25
2018-09-28T10:09:26.506Z,11.04
2018-09-28T10:11:54.320Z,10.85
2018-09-28T10:14:22.102Z,10.76
2018-09-28T10:16:49.870Z,10.64
2018-09-28T10:19:17.728Z,10.44
2018-09-28T10:21:45.502Z,10.13
2018-09-28T10:24:13.355Z,10.22
2018-09-28T10:26:41.135Z,10.36
2018-09-28T10:29:08.940Z,10.36
2018-09-28T10:31:36.750Z,10.17
2018-09-28T10:34:04.599Z,9.95
2018-09-28T10:36:32.414Z,9.97
2018-09-28T10:39:00.903Z,9.88
2018-09-28T10:41:28.786Z,9.68
2018-09-28T10:43:56.656Z,9.65
2018-09-28T10:46:24.455Z,9.58
2018-09-28T10:48:52.554Z,9.60
2018-09-28T10:51:20.480Z,9.51
2018-09-28T10:53:48.243Z,9.54
2018-09-28T10:56:16.098Z,9.70
2018-09-28T10:58:43.912Z,9.76
2018-09-28T11:01:11.781Z,9.71
2018-09-28T11:03:39.621Z,9.60
2018-09-28T11:06:07.470Z,9.54
2018-09-28T11:08:35.390Z,9.34
2018-09-28T11:11:03.180Z,9.21
2018-09-28T11:13:31.066Z,9.26
2018-09-28T11:15:58.874Z,9.15
2018-09-28T11:18:26.742Z,9.04
2018-09-28T11:20:54.599Z,9.20
2018-09-28T11:23:22.477Z,9.41
2018-09-28T11:25:50.262Z,9.76
2018-09-28T11:28:18.068Z,10.15
2018-09-28T11:30:45.870Z,10.41
2018-09-28T11:33:13.661Z,10.47
2018-09-28T11:35:41.503Z,10.59
2018-09-28T11:38:09.278Z,10.71
2018-09-28T11:40:37.065Z,10.61
2018-09-28T11:43:04.985Z,10.43
2018-09-28T11:45:32.843Z,10.31
2018-09-28T11:48:00.594Z,10.14
2018-09-28T11:50:28.486Z,10.03
2018-09-28T11:52:56.282Z,9.90
2018-09-28T11:55:24.170Z,9.91
2018-09-28T11:57:51.944Z,10.03
2018-09-28T12:00:19.723Z,10.13
2018-09-28T12:02:47.566Z,10.25
2018-09-28T12:05:15.448Z,10.29
2018-09-28T12:07:43.170Z,10.39
2018-09-28T12:10:10.998Z,10.34
2018-09-28T12:12:38.820Z,10.18
2018-09-28T12:15:06.748Z,10.08
2018-09-28T12:17:34.522Z,10.11
2018-09-28T12:20:02.318Z,9.92
2018-09-28T12:22:30.215Z,9.81
2018-09-28T12:24:57.995Z,9.74
2018-09-28T12:27:25.916Z,9.55
2018-09-28T12:29:53.679Z,9.37
2018-09-28T12:32:21.488Z,9.31
2018-09-28T12:34:49.274Z,9.20
2018-09-28T12:37:17.116Z,9.21
2018-09-28T12:39:44.972Z,9.37
2018-09-28T12:42:12.781Z,9.49
2018-09-28T12:44:40.692Z,9.53
2018-09-28T12:47:08.445Z,9.54
2018-09-28T12:49:36.258Z,9.28
2018-09-28T12:52:04.095Z,9.01
2018-09-28T12:54:32.012Z,8.89
2018-09-28T12:56:59.836Z,8.90
2018-09-28T12:59:27.655Z,8.94
2018-09-28T13:01:55.490Z,9.03
2018-09-28T13:04:23.286Z,9.01
2018-09-28T13:06:51.096Z,9.06
2018-09-28T13:09:18.934Z,8.98
2018-09-28T13:11:46.778Z,8.99
2018-09-28T13:14:14.709Z,8.92
2018-09-28T13:16:42.542Z,8.76
2018-09-28T13:19:10.340Z,8.69
2018-09-28T13:21:38.204Z,8.62
2018-09-28T13:24:06.151Z,8.54
2018-09-28T13:26:34.016Z,8.42
2018-09-28T13:29:01.925Z,8.33
2018-09-28T13:31:29.719Z,8.19
2018-09-28T13:33:57.895Z,8.09
2018-09-28T13:36:25.730Z,7.98
2018-09-28T13:38:53.619Z,7.78
2018-09-28T13:41:21.410Z,7.66
2018-09-28T13:43:49.202Z,7.56
2018-09-28T13:46:17.010Z,7.48
2018-09-28T13:48:44.894Z,7.31
2018-09-28T13:51:12.719Z,7.21
2018-09-28T13:53:40.519Z,7.07
2018-09-28T13:56:08.512Z,7.02
2018-09-28T13:58:36.209Z,7.02
2018-09-28T14:01:04.050Z,6.95
2018-09-28T14:03:31.883Z,6.90
2018-09-28T14:05:59.682Z,6.83
2018-09-28T14:08:27.539Z,6.67
2018-09-28T14:10:55.451Z,6.52
2018-09-28T14:13:23.237Z,6.44
2018-09-28T14:15:51.031Z,6.30
2018-09-28T14:18:18.870Z,6.17
2018-09-28T14:20:46.743Z,6.07
2018-09-28T14:23:14.478Z,6.01
2018-09-28T14:25:42.280Z,5.92
2018-09-28T14:28:10.265Z,5.96
2018-09-28T14:30:38.023Z,5.90
2018-09-28T14:33:05.853Z,5.94
2018-09-28T14:35:33.667Z,6.04
2018-09-28T14:38:01.529Z,5.95
2018-09-28T14:40:29.328Z,5.85
2018-09-28T14:42:57.159Z,5.75
2018-09-28T14:45:24.943Z,5.64
2018-09-28T14:47:52.808Z,5.49
2018-09-28T14:50:20.744Z,5.39
2018-09-28T14:52:48.673Z,5.28
2018-09-28T14:55:16.409Z,5.15
2018-09-28T14:57:44.193Z,5.05
2018-09-28T15:00:12.236Z,5.00
2018-09-28T15:02:40.016Z,4.94
2018-09-28T15:05:07.831Z,4.91
2018-09-28T15:07:35.879Z,4.80
2018-09-28T15:10:03.863Z,4.72
2018-09-28T15:12:31.717Z,4.60
2018-09-28T15:14:59.537Z,4.54
2018-09-28T15:17:27.361Z,4.43
2018-09-28T15:19:55.166Z,4.37
2018-09-28T15:22:23.027Z,4.29
2018-09-28T15:24:50.831Z,4.20
2018-09-28T15:27:18.614Z,4.12
2018-09-28T15:29:46.502Z,4.00
2018-09-28T15:32:14.254Z,3.91
2018-09-28T15:34:42.059Z,3.82
2018-09-28T15:37:09.854Z,3.75
2018-09-28T15:39:37.713Z,3.68
2018-09-28T15:42:05.509Z,3.59
2018-09-28T15:44:34.199Z,3.50
2018-09-28T15:47:02.046Z,3.40
2018-09-28T15:49:29.831Z,3.32
2018-09-28T15:51:57.602Z,3.23
2018-09-28T15:54:25.460Z,3.16
2018-09-28T15:56:53.324Z,3.06
2018-09-28T15:59:21.114Z,2.96
2018-09-28T16:01:48.978Z,2.86
2018-09-28T16:04:16.794Z,2.76
2018-09-28T16:06:44.606Z,2.65
2018-09-28T16:09:12.512Z,2.54
2018-09-28T16:11:40.325Z,2.40
2018-09-28T16:14:08.119Z,2.32
2018-09-28T16:16:35.959Z,2.19
2018-09-28T16:19:03.792Z,2.09
2018-09-28T16:21:31.609Z,2.01
2018-09-28T16:23:59.499Z,1.89
2018-09-28T16:26:27.301Z,1.78
2018-09-28T16:28:55.138Z,1.68
2018-09-28T16:31:22.953Z,1.56
2018-09-28T16:33:50.795Z,1.36
2018-09-28T16:36:18.695Z,1.26
2018-09-28T16:38:46.488Z,1.16
2018-09-28T16:41:14.323Z,1.12
2018-09-28T16:43:42.120Z,1.02
2018-09-28T16:46:09.969Z,0.93
2018-09-28T16:48:37.759Z,0.78
2018-09-28T16:51:05.655Z,0.66
2018-09-28T16:53:33.611Z,0.59
2018-09-28T16:56:01.391Z,0.49
2018-09-28T16:58:29.237Z,0.39
2018-09-28T17:00:57.075Z,0.30
2018-09-28T17:03:24.856Z,0.20
2018-09-28T17:05:52.646Z,0.07
2018-09-28T17:08:20.648Z,-0.07
2018-09-28T17:10:48.447Z,-0.16
2018-09-28T17:13:16.288Z,-0.22
2018-09-28T17:15:44.199Z,-0.32
2018-09-28T17:18:12.011Z,-0.42
2018-09-28T17:20:39.803Z,-0.48
2018-09-28T17:23:07.612Z,-0.65
2018-09-28T17:25:35.417Z,-0.77
2018-09-28T17:28:03.243Z,-0.87
2018-09-28T17:30:31.059Z,-0.95
2018-09-28T17:32:59.143Z,-1.03
2018-09-28T17:35:27.012Z,-1.09
2018-09-28T17:37:55.034Z,-1.09
2018-09-28T17:40:22.929Z,-1.23
2018-09-28T17:42:50.772Z,-1.32
2018-09-28T17:45:18.591Z,-1.34
2018-09-28T17:47:46.422Z,-1.31
2018-09-28T17:50:14.494Z,-1.41
2018-09-28T17:52:42.395Z,-1.53
2018-09-28T17:55:10.183Z,-1.62
2018-09-28T17:57:37.967Z,-1.69
2018-09-28T18:00:05.867Z,-1.69
2018-09-28T18:02:33.663Z,-1.74
2018-09-28T18:05:01.458Z,-1.78
2018-09-28T18:07:29.275Z,-1.80
2018-09-28T18:09:57.439Z,-1.88
2018-09-28T18:12:25.258Z,-1.92
2018-09-28T18:14:53.046Z,-1.98
2018-09-28T18:17:20.839Z,-1.98
2018-09-28T18:19:48.683Z,-2.08
2018-09-28T18:22:17.141Z,-2.17
2018-09-28T18:24:44.957Z,-2.19
2018-09-28T18:27:12.794Z,-2.19
2018-09-28T18:29:40.597Z,-2.18
2018-09-28T18:32:08.436Z,-2.23
2018-09-28T18:34:36.274Z,-2.20
2018-09-28T18:37:04.089Z,-2.23
2018-09-28T18:39:31.943Z,-2.31
2018-09-28T18:41:59.795Z,-2.40
2018-09-28T18:44:27.621Z,-2.46
2018-09-28T18:46:55.414Z,-2.51
2018-09-28T18:49:23.194Z,-2.55
2018-09-28T18:51:51.114Z,-2.61
2018-09-28T18:54:18.977Z,-2.66
2018-09-28T18:56:46.926Z,-2.67
2018-09-28T18:59:14.707Z,-2.70
2018-09-28T19:01:42.519Z,-2.71
2018-09-28T19:04:10.352Z,-2.72
2018-09-28T19:06:38.230Z,-2.78
2018-09-28T19:09:08.440Z,-2.82
2018-09-28T19:11:36.260Z,-2.89
2018-09-28T19:14:04.190Z,-2.96
2018-09-28T19:16:32.086Z,-3.02
2018-09-28T19:18:59.962Z,-3.06
2018-09-28T19:21:27.773Z,-3.09
2018-09-28T19:23:55.615Z,-3.13
2018-09-28T19:26:23.469Z,-3.09
2018-09-28T19:28:51.421Z,-3.03
2018-09-28T19:31:19.272Z,-2.94
2018-09-28T19:33:47.087Z,-2.87
2018-09-28T19:36:14.894Z,-2.87
2018-09-28T19:38:42.752Z,-2.90
2018-09-28T19:41:10.534Z,-2.96
2018-09-28T19:43:38.344Z,-3.00
2018-09-28T19:46:06.394Z,-3.00
2018-09-28T19:48:34.186Z,-3.01
2018-09-28T19:51:02.004Z,-2.99
2018-09-28T19:53:29.815Z,-2.98
2018-09-28T19:55:57.594Z,-2.96
2018-09-28T19:58:25.449Z,-3.00
2018-09-28T20:00:53.230Z,-3.01
2018-09-28T20:03:21.014Z,-3.06
2018-09-28T20:05:48.859Z,-3.20
2018-09-28T20:08:16.635Z,-3.31
2018-09-28T20:10:44.433Z,-3.36
2018-09-28T20:13:12.398Z,-3.43
2018-09-28T20:15:40.223Z,-3.46
2018-09-28T20:18:08.043Z,-3.47
2018-09-28T20:20:35.891Z,-3.50
2018-09-28T20:23:03.707Z,-3.51
2018-09-28T20:25:31.533Z,-3.55
2018-09-28T20:27:59.396Z,-3.63
2018-09-28T20:30:27.218Z,-3.65
2018-09-28T20:32:55.050Z,-3.66
2018-09-28T20:35:22.914Z,-3.68
2018-09-28T20:37:50.723Z,-3.73
2018-09-28T20:40:18.497Z,-3.78
2018-09-28T20:42:46.323Z,-3.81
2018-09-28T20:45:14.155Z,-3.84
2018-09-28T20:47:42.014Z,-3.84
2018-09-28T20:50:09.843Z,-3.79
2018-09-28T20:52:37.682Z,-3.83
2018-09-28T20:55:05.510Z,-3.87
2018-09-28T20:57:33.350Z,-3.86
2018-09-28T21:00:01.155Z,-3.91
2018-09-28T21:02:28.956Z,-3.93
2018-09-28T21:04:56.799Z,-3.98
2018-09-28T21:07:24.672Z,-4.03
2018-09-28T21:09:52.459Z,-4.05
2018-09-28T21:12:20.239Z,-4.06
2018-09-28T21:14:48.088Z,-4.05
2018-09-28T21:17:15.883Z,-4.05
2018-09-28T21:19:43.678Z,-4.10
2018-09-28T21:22:11.532Z,-4.16
2018-09-28T21:24:39.373Z,-4.20
2018-09-28T21:27:07.194Z,-4.25
2018-09-28T21:29:35.051Z,-4.22
2018-09-28T21:32:02.862Z,-4.17
2018-09-28T21:34:30.655Z,-4.17
2018-09-28T21:36:58.531Z,-4.25
2018-09-28T21:39:26.313Z,-4.27
2018-09-28T21:41:54.098Z,-4.25
2018-09-28T21:44:21.953Z,-4.26
2018-09-28T21:46:49.766Z,-4.27
2018-09-28T21:49:17.574Z,-4.28
2018-09-28T21:51:45.398Z,-4.34
2018-09-28T21:54:13.202Z,-4.39
2018-09-28T21:56:40.987Z,-4.38
2018-09-28T21:59:08.826Z,-4.35
2018-09-28T22:01:36.619Z,-4.36
2018-09-28T22:04:04.455Z,-4.27
2018-09-28T22:06:32.258Z,-4.27
2018-09-28T22:09:00.087Z,-4.38
2018-09-28T22:11:27.879Z,-4.47
2018-09-28T22:13:55.675Z,-4.50
2018-09-28T22:16:23.596Z,-4.52
2018-09-28T22:18:51.398Z,-4.56
2018-09-28T22:21:19.235Z,-4.55
2018-09-28T22:23:47.023Z,-4.56
2018-09-28T22:26:14.803Z,-4.56
2018-09-28T22:28:42.623Z,-4.54
2018-09-28T22:31:10.395Z,-4.58
2018-09-28T22:33:38.181Z,-4.64
2018-09-28T22:36:06.262Z,-4.68
2018-09-28T22:38:34.054Z,-4.70
2018-09-28T22:41:01.842Z,-4.77
2018-09-28T22:43:29.673Z,-4.79
2018-09-28T22:45:57.490Z,-4.80
2018-09-28T22:48:25.311Z,-4.81
2018-09-28T22:50:53.137Z,-4.80
2018-09-28T22:53:20.926Z,-4.80
2018-09-28T22:55:48.835Z,-4.84
2018-09-28T22:58:16.610Z,-4.88
2018-09-28T23:00:44.416Z,-4.90
2018-09-28T23:03:12.235Z,-4.92
2018-09-28T23:05:40.078Z,-4.93
2018-09-28T23:08:07.947Z,-4.93
2018-09-28T23:10:35.816Z,-4.93
2018-09-28T23:13:03.641Z,-4.91
2018-09-28T23:15:31.439Z,-4.96
2018-09-28T23:17:59.231Z,-5.01
2018-09-28T23:20:27.094Z,-5.02
2018-09-28T23:22:54.886Z,-5.04
2018-09-28T23:25:22.749Z,-5.06
2018-09-28T23:27:50.542Z,-5.04
2018-09-28T23:30:18.347Z,-5.03
2018-09-28T23:32:46.224Z,-5.02
2018-09-28T23:35:13.994Z,-4.99
2018-09-28T23:37:41.779Z,-5.02
2018-09-28T23:40:09.670Z,-5.06
2018-09-28T23:42:37.447Z,-5.09
2018-09-28T23:45:05.279Z,-5.11
2018-09-28T23:47:33.110Z,-5.12
2018-09-28T23:50:00.951Z,-5.17
2018-09-28T23:52:28.810Z,-5.19
2018-09-28T23:54:56.601Z,-5.22
2018-09-28T23:57:24.414Z,-5.21
2018-09-28T23:59:52.275Z,-5.24
